Terminal Aerodrome Forecast
Issued by NWS Melbourne, FL

Home | Current Version | Previous Version | Text Only | Print | Product List | Glossary On
Versions: 1 2 3 4 5 6 7 8 9 10 11 12 13 14 15 16 17 18 19 20 21 22 23 24 25 26
000
FTUS42 KMLB 240311 AAA
TAFMCO
TAF AMD
KMCO 240311Z 2403/2424 04008KT P6SM VCSH SCT030 SCT070 BKN200
     FM240600 03007KT P6SM SCT025 SCT050
     FM241500 05011KT P6SM VCSH SCT030 SCT060 SCT250
     FM242200 05011KT P6SM SCT040 SCT060 SCT250=

USA.gov is the U.S. government's official web portal to all federal, state and local government web resources and services.